Time;durP1;ratioP1;P1;durP2;ratioP2;P2;SDS_P1;SDS_P2;PMS_P1;PMS_P2;Temp;Humidity;BMP_temperature;BMP_pressure;BME280_temperature;BME280_humidity;BME280_pressure;Samples;Min_cycle;Max_cycle;Signal;HPM_P1;HPM_P2
2023/10/18 00:00:37;;;;;;;76.67;73.60;;;;;;;4.63;100.00;101848.59;5031138;28;20431;-43
2023/10/18 00:03:06;;;;;;;79.13;75.73;;;;;;;4.62;100.00;101845.09;5030410;28;20468;-47
2023/10/18 00:05:34;;;;;;;77.20;73.63;;;;;;;4.63;100.00;101848.59;5030472;28;20431;-43
2023/10/18 00:08:03;;;;;;;77.07;73.97;;;;;;;4.61;100.00;101848.69;5030983;28;20493;-44
2023/10/18 00:10:33;;;;;;;79.63;76.23;;;;;;;4.61;100.00;101838.13;5030674;28;20436;-42
2023/10/18 00:13:01;;;;;;;80.40;77.07;;;;;;;4.63;100.00;101832.75;5030475;28;20452;-43
2023/10/18 00:15:31;;;;;;;78.10;74.60;;;;;;;4.64;100.00;101847.59;5030827;28;20860;-43
2023/10/18 00:17:59;;;;;;;80.37;76.67;;;;;;;4.66;100.00;101837.75;5030652;28;20509;-45
2023/10/18 00:20:27;;;;;;;85.73;81.67;;;;;;;4.68;100.00;101836.66;5031018;28;20440;-45
2023/10/18 00:22:57;;;;;;;82.97;79.47;;;;;;;4.72;100.00;101827.47;5030361;28;20456;-44
2023/10/18 00:25:24;;;;;;;81.27;77.60;;;;;;;4.77;100.00;101830.56;5030566;28;20892;-43
2023/10/18 00:27:53;;;;;;;79.10;75.90;;;;;;;4.84;100.00;101829.06;5030437;28;20468;-43
2023/10/18 00:30:21;;;;;;;86.50;83.10;;;;;;;4.90;100.00;101825.03;5030782;28;20436;-44
2023/10/18 00:32:49;;;;;;;81.60;78.20;;;;;;;4.97;100.00;101823.53;5029638;28;20468;-44
2023/10/18 00:35:20;;;;;;;88.93;85.23;;;;;;;5.00;100.00;101810.91;5033567;28;20440;-43
2023/10/18 00:37:49;;;;;;;90.53;86.77;;;;;;;5.05;100.00;101825.53;5034082;28;20502;-43
2023/10/18 00:40:33;;;;;;;85.13;81.73;;;;;;;5.09;100.00;101819.00;5034393;28;20612;-43
2023/10/18 00:43:11;;;;;;;85.57;82.23;;;;;;;5.14;100.00;101816.78;5033814;28;20471;-45
2023/10/18 00:45:43;;;;;;;88.47;84.67;;;;;;;5.15;100.00;101811.34;5033853;28;20423;-43
2023/10/18 00:48:13;;;;;;;86.97;83.40;;;;;;;5.15;100.00;101806.06;5033798;28;20534;-44
2023/10/18 00:50:43;;;;;;;87.70;84.17;;;;;;;5.17;100.00;101798.81;5033839;28;20432;-44
2023/10/18 00:53:13;;;;;;;84.87;81.57;;;;;;;5.19;100.00;101799.53;5033717;28;20464;-43
2023/10/18 00:55:41;;;;;;;88.70;85.20;;;;;;;5.23;100.00;101797.44;5033814;28;20433;-42
2023/10/18 00:58:12;;;;;;;84.87;81.13;;;;;;;5.24;100.00;101791.19;5033998;28;20785;-45
2023/10/18 01:00:40;;;;;;;89.87;85.87;;;;;;;5.25;100.00;101793.72;5033795;28;20432;-42
2023/10/18 01:03:14;;;;;;;87.10;82.90;;;;;;;5.26;100.00;101792.72;5033277;28;20467;-44
2023/10/18 01:05:59;;;;;;;89.27;85.63;;;;;;;5.29;100.00;101796.91;5033734;28;20437;-42
2023/10/18 01:08:29;;;;;;;90.40;86.63;;;;;;;5.30;100.00;101790.66;5033540;28;20467;-44
2023/10/18 01:11:03;;;;;;;89.07;85.53;;;;;;;5.31;100.00;101785.22;5033900;28;20428;-46
2023/10/18 01:13:34;;;;;;;89.27;85.23;;;;;;;5.32;100.00;101784.25;5032983;28;20462;-48
2023/10/18 01:16:08;;;;;;;86.70;83.47;;;;;;;5.35;100.00;101780.47;5033188;28;20443;-44
2023/10/18 01:18:36;;;;;;;87.30;83.80;;;;;;;5.39;100.00;101785.38;5033408;28;20523;-44
2023/10/18 01:21:18;;;;;;;88.70;85.10;;;;;;;5.43;100.00;101783.28;5033343;28;20546;-49
2023/10/18 01:23:50;;;;;;;92.03;88.40;;;;;;;5.47;100.00;101780.22;5032810;28;21002;-43
2023/10/18 01:26:21;;;;;;;86.57;83.17;;;;;;;5.51;100.00;101778.97;5033131;28;20433;-48
2023/10/18 01:28:51;;;;;;;89.57;85.40;;;;;;;5.56;100.00;101775.91;5024885;28;20432;-42
2023/10/18 01:31:19;;;;;;;86.87;83.20;;;;;;;5.62;100.00;101785.09;5033028;28;20990;-44
2023/10/18 01:33:47;;;;;;;98.67;94.83;;;;;;;5.65;100.00;101784.81;5032544;28;20456;-45
2023/10/18 01:36:17;;;;;;;89.60;85.70;;;;;;;5.68;100.00;101780.09;5032989;28;20443;-47
2023/10/18 01:38:48;;;;;;;98.37;94.67;;;;;;;5.72;100.00;101775.34;5033251;28;20519;-46
2023/10/18 01:41:25;;;;;;;94.93;90.93;;;;;;;5.77;100.00;101775.75;5033005;28;20996;-45
2023/10/18 01:43:55;;;;;;;93.40;89.60;;;;;;;5.81;100.00;101770.06;5032532;28;20460;-42
2023/10/18 01:46:23;;;;;;;88.80;85.47;;;;;;;5.86;100.00;101767.00;5032282;28;20524;-47
2023/10/18 01:48:52;;;;;;;92.70;88.93;;;;;;;5.90;100.00;101769.25;5024955;28;20811;-44
2023/10/18 01:51:20;;;;;;;92.13;88.33;;;;;;;5.92;100.00;101764.63;5032769;28;20436;-44
2023/10/18 01:53:50;;;;;;;93.27;89.40;;;;;;;5.96;100.00;101767.84;5032204;28;20462;-46
2023/10/18 01:56:21;;;;;;;91.93;88.10;;;;;;;6.00;100.00;101764.75;5032581;28;20483;-44
2023/10/18 01:58:49;;;;;;;93.50;89.93;;;;;;;6.04;100.00;101768.78;5032932;28;20839;-43
2023/10/18 02:01:19;;;;;;;94.90;90.70;;;;;;;6.09;100.00;101761.25;5032288;28;20463;-43
2023/10/18 02:03:50;;;;;;;90.30;87.00;;;;;;;6.15;100.00;101759.03;5032182;28;20463;-44
2023/10/18 02:06:19;;;;;;;93.90;90.50;;;;;;;6.18;100.00;101754.28;5032377;28;20440;-44
2023/10/18 02:08:48;;;;;;;95.10;91.50;;;;;;;6.22;100.00;101750.34;5032448;28;20499;-42
2023/10/18 02:11:16;;;;;;;90.47;87.13;;;;;;;6.28;100.00;101760.38;5032392;28;20436;-43
2023/10/18 02:13:44;;;;;;;92.30;88.83;;;;;;;6.30;100.00;101758.41;5031769;28;20460;-45
2023/10/18 02:16:15;;;;;;;96.60;92.80;;;;;;;6.31;100.00;101760.09;5032223;28;20485;-47
2023/10/18 02:18:47;;;;;;;97.97;94.03;;;;;;;6.34;100.00;101757.16;5032364;28;20439;-42
2023/10/18 02:21:15;;;;;;;95.27;91.50;;;;;;;6.35;100.00;101758.00;5032425;28;20424;-45
2023/10/18 02:23:46;;;;;;;92.73;89.00;;;;;;;6.37;100.00;101758.66;5031608;28;20488;-43
2023/10/18 02:26:30;;;;;;;93.10;89.40;;;;;;;6.39;100.00;101759.38;5031718;28;20439;-42
2023/10/18 02:28:59;;;;;;;95.10;91.50;;;;;;;6.41;100.00;101752.94;5031964;28;20979;-44
2023/10/18 02:31:28;;;;;;;96.63;92.83;;;;;;;6.43;100.00;101752.78;5031993;28;20440;-41
2023/10/18 02:33:58;;;;;;;94.80;91.10;;;;;;;6.44;100.00;101749.19;5031476;28;20454;-43
2023/10/18 02:36:32;;;;;;;95.20;91.57;;;;;;;6.49;100.00;101754.88;5031750;28;20456;-43
2023/10/18 02:39:00;;;;;;;92.70;89.10;;;;;;;6.51;100.00;101747.63;5024908;28;20501;-42
2023/10/18 02:41:28;;;;;;;96.40;92.80;;;;;;;6.55;100.00;101746.34;5031811;28;20511;-42
2023/10/18 02:43:57;;;;;;;94.10;90.60;;;;;;;6.57;100.00;101744.41;5031232;28;20468;-43
2023/10/18 02:46:25;;;;;;;92.87;89.27;;;;;;;6.62;100.00;101755.38;5031572;28;20914;-42
2023/10/18 02:48:54;;;;;;;96.70;93.10;;;;;;;6.63;100.00;101751.75;5031643;28;20479;-43
2023/10/18 02:51:24;;;;;;;96.30;92.50;;;;;;;6.66;100.00;101748.78;5031633;28;20522;-41
2023/10/18 02:53:54;;;;;;;94.50;90.80;;;;;;;6.67;100.00;101750.47;5031349;28;20463;-44
2023/10/18 02:56:26;;;;;;;97.07;93.20;;;;;;;6.69;100.00;101754.63;5031053;28;20515;-42
2023/10/18 02:58:58;;;;;;;98.23;94.47;;;;;;;6.70;100.00;101744.88;5023790;28;20541;-43
2023/10/18 03:01:27;;;;;;;96.90;93.00;;;;;;;6.73;100.00;101752.53;5031513;28;20439;-45
2023/10/18 03:03:55;;;;;;;98.90;95.47;;;;;;;6.76;100.00;101752.25;5030954;28;21053;-43
2023/10/18 03:06:27;;;;;;;96.00;92.33;;;;;;;6.77;100.00;101743.31;5031410;28;20432;-44
2023/10/18 03:08:58;;;;;;;82.17;78.67;;;;;;;6.77;100.00;101742.47;5031613;28;20475;-43
2023/10/18 03:11:26;;;;;;;83.27;79.87;;;;;;;6.78;100.00;101733.53;5031520;28;20440;-42
2023/10/18 03:13:57;;;;;;;78.23;75.13;;;;;;;6.76;100.00;101735.50;5022744;28;20527;-44
2023/10/18 03:16:38;;;;;;;77.83;74.53;;;;;;;6.77;100.00;101739.81;5031553;28;20439;-41
2023/10/18 03:19:12;;;;;;;82.03;78.73;;;;;;;6.79;100.00;101738.69;5025093;28;20863;-44
2023/10/18 03:21:46;;;;;;;76.17;73.20;;;;;;;6.80;100.00;101740.38;5031382;28;20432;-43
2023/10/18 03:24:14;;;;;;;78.20;75.10;;;;;;;6.84;100.00;101732.97;5030890;28;20483;-44
2023/10/18 03:26:42;;;;;;;76.50;73.40;;;;;;;6.83;100.00;101736.56;5030885;28;20995;-42
2023/10/18 03:29:12;;;;;;;76.97;73.87;;;;;;;6.85;100.00;101735.44;5030959;28;20555;-46
2023/10/18 03:31:41;;;;;;;77.77;74.67;;;;;;;6.88;100.00;101734.31;5031271;28;20483;-42
2023/10/18 03:34:13;;;;;;;72.80;69.70;;;;;;;6.89;100.00;101734.19;5030699;28;20864;-42
2023/10/18 03:36:51;;;;;;;74.80;71.60;;;;;;;6.91;100.00;101734.84;5032917;28;20851;-47
2023/10/18 03:39:20;;;;;;;73.67;70.67;;;;;;;6.91;100.00;101737.50;5035822;28;20435;-44
2023/10/18 03:41:50;;;;;;;75.90;72.60;;;;;;;6.95;100.00;101736.22;5031376;28;20494;-44
2023/10/18 03:44:22;;;;;;;71.80;69.00;;;;;;;6.95;100.00;101725.63;5031115;28;20532;-45
2023/10/18 03:46:51;;;;;;;72.20;69.20;;;;;;;6.97;100.00;101726.31;5031188;28;20482;-44
2023/10/18 03:49:30;;;;;;;71.73;68.73;;;;;;;6.97;100.00;101715.69;5031009;28;20482;-46
2023/10/18 03:52:12;;;;;;;70.17;67.33;;;;;;;6.98;100.00;101711.22;5031026;28;20737;-44
2023/10/18 03:54:57;;;;;;;69.93;66.83;;;;;;;6.99;100.00;101713.72;5030984;28;20436;-43
2023/10/18 03:57:29;;;;;;;72.23;69.20;;;;;;;7.01;100.00;101708.28;5029790;28;20534;-43
2023/10/18 03:59:58;;;;;;;70.33;67.17;;;;;;;7.02;100.00;101705.47;5029146;28;20440;-43
2023/10/18 04:02:27;;;;;;;69.83;66.87;;;;;;;7.05;100.00;101699.84;5029439;28;20456;-45
2023/10/18 04:05:13;;;;;;;69.47;66.57;;;;;;;7.05;100.00;101694.56;5030574;28;20432;-42
2023/10/18 04:07:42;;;;;;;67.50;64.27;;;;;;;7.05;100.00;101699.84;5030889;28;20532;-41
2023/10/18 04:10:12;;;;;;;61.07;58.50;;;;;;;7.03;100.00;101701.84;5034098;28;20428;-46
2023/10/18 04:12:43;;;;;;;61.87;59.23;;;;;;;7.03;100.00;101691.22;5034179;28;20480;-42
2023/10/18 04:15:21;;;;;;;66.23;63.43;;;;;;;7.02;100.00;101691.38;5034634;28;20435;-42
2023/10/18 04:18:02;;;;;;;58.90;56.50;;;;;;;7.00;100.00;101690.69;5034279;28;20452;-44
2023/10/18 04:20:32;;;;;;;59.87;56.90;;;;;;;7.00;100.00;101685.38;5034616;28;20494;-42
2023/10/18 04:23:12;;;;;;;58.00;55.60;;;;;;;7.00;100.00;101686.22;5033920;28;20830;-44
2023/10/18 04:25:40;;;;;;;61.53;58.97;;;;;;;6.97;100.00;101683.88;5034366;28;20427;-45
2023/10/18 04:28:08;;;;;;;59.53;56.73;;;;;;;6.98;100.00;101677.59;5034205;28;20538;-44
2023/10/18 04:30:37;;;;;;;59.37;56.93;;;;;;;6.97;100.00;101673.25;5034467;28;20792;-41
2023/10/18 04:33:22;;;;;;;56.63;54.20;;;;;;;6.98;100.00;101677.59;5033788;28;20546;-43
2023/10/18 04:35:52;;;;;;;53.10;51.00;;;;;;;6.99;100.00;101676.59;5034135;28;20923;-41
2023/10/18 04:38:29;;;;;;;51.80;49.50;;;;;;;6.99;100.00;101673.94;5034236;28;20924;-42
2023/10/18 04:41:07;;;;;;;53.80;51.50;;;;;;;6.99;100.00;101670.47;5034487;28;20467;-41
2023/10/18 04:43:34;;;;;;;51.40;48.80;;;;;;;6.96;100.00;101670.78;5033483;28;20490;-42
2023/10/18 04:46:07;;;;;;;49.37;47.17;;;;;;;6.96;100.00;101668.94;5033737;28;20432;-45
2023/10/18 04:51:28;;;;;;;48.30;46.10;;;;;;;6.98;100.00;101666.16;5030121;28;20436;-41
2023/10/18 04:54:00;;;;;;;47.00;45.10;;;;;;;6.96;100.00;101662.81;5033352;28;20472;-44
2023/10/18 04:56:31;;;;;;;46.23;44.13;;;;;;;6.97;100.00;101661.81;5033593;28;20963;-42
2023/10/18 04:59:00;;;;;;;47.03;44.90;;;;;;;6.97;100.00;101664.47;5034206;28;20788;-42
2023/10/18 05:01:35;;;;;;;46.43;44.33;;;;;;;6.95;100.00;101656.69;5033752;28;20490;-42
2023/10/18 05:06:53;;;;;;;42.93;40.93;;;;;;;6.96;100.00;101666.28;5033394;28;20514;-44
2023/10/18 05:09:31;;;;;;;42.60;40.70;;;;;;;6.97;100.00;101669.78;5033755;28;20479;-43
2023/10/18 05:12:03;;;;;;;41.60;39.60;;;;;;;6.99;100.00;101681.09;5032829;28;20436;-42
2023/10/18 05:14:42;;;;;;;44.97;42.87;;;;;;;6.97;100.00;101669.78;5033625;28;20486;-43
2023/10/18 05:17:21;;;;;;;40.80;38.63;;;;;;;6.99;100.00;101668.63;5033428;28;20483;-42
2023/10/18 05:19:51;;;;;;;41.53;38.93;;;;;;;7.00;100.00;101659.72;5033442;28;20881;-44
2023/10/18 05:22:23;;;;;;;38.60;36.80;;;;;;;7.00;100.00;101659.72;5032879;28;20460;-44
2023/10/18 05:24:57;;;;;;;40.57;38.40;;;;;;;7.01;100.00;101660.53;5033794;28;20424;-44
2023/10/18 05:27:26;;;;;;;39.60;37.53;;;;;;;7.00;100.00;101654.41;5033347;28;20498;-41
2023/10/18 05:29:55;;;;;;;39.13;37.27;;;;;;;7.01;100.00;101663.19;5033380;28;20982;-41
2023/10/18 05:32:39;;;;;;;39.53;37.63;;;;;;;7.01;100.00;101666.69;5032929;28;20487;-42
2023/10/18 05:35:21;;;;;;;38.20;36.30;;;;;;;7.02;100.00;101676.28;5033008;28;20428;-42
2023/10/18 05:37:57;;;;;;;39.70;37.47;;;;;;;7.02;100.00;101673.63;5033000;28;20459;-42
2023/10/18 05:40:46;;;;;;;38.23;36.23;;;;;;;7.04;100.00;101661.09;5032900;28;20532;-43
2023/10/18 05:43:13;;;;;;;36.70;35.03;;;;;;;7.01;100.00;101653.44;5026138;28;20539;-41
2023/10/18 05:45:41;;;;;;;37.47;35.43;;;;;;;7.02;100.00;101668.34;5032647;28;20523;-44
2023/10/18 05:48:13;;;;;;;35.87;34.13;;;;;;;7.03;100.00;101664.72;5032629;28;20452;-41
2023/10/18 05:50:45;;;;;;;35.90;34.30;;;;;;;7.04;100.00;101654.94;5033039;28;20460;-41
2023/10/18 05:53:18;;;;;;;34.10;32.47;;;;;;;7.02;100.00;101656.88;5032003;28;20482;-42
2023/10/18 05:55:53;;;;;;;32.57;31.17;;;;;;;6.99;100.00;101649.25;5032504;28;20432;-45
2023/10/18 05:58:26;;;;;;;35.00;33.20;;;;;;;6.99;100.00;101657.22;5032809;28;20444;-41
2023/10/18 06:00:57;;;;;;;33.00;31.40;;;;;;;6.98;100.00;101660.84;5032674;28;20428;-45
2023/10/18 06:03:26;;;;;;;33.20;31.40;;;;;;;6.98;100.00;101660.84;5032288;28;20480;-44
2023/10/18 06:05:55;;;;;;;32.30;30.70;;;;;;;6.94;100.00;101649.69;5032323;28;20439;-42
2023/10/18 06:08:23;;;;;;;32.13;30.43;;;;;;;6.94;100.00;101640.91;5032357;28;20455;-47
2023/10/18 06:11:00;;;;;;;33.10;31.60;;;;;;;6.95;100.00;101647.88;5032316;28;20843;-44
2023/10/18 06:13:27;;;;;;;32.70;31.27;;;;;;;6.95;100.00;101651.38;5031871;28;20488;-44
2023/10/18 06:15:58;;;;;;;31.93;30.30;;;;;;;6.98;100.00;101651.06;5032358;28;20443;-43
2023/10/18 06:18:30;;;;;;;31.60;29.97;;;;;;;6.99;100.00;101650.06;5032203;28;20463;-45
2023/10/18 06:20:59;;;;;;;34.37;32.13;;;;;;;7.02;100.00;101654.22;5032321;28;20741;-41
2023/10/18 06:23:39;;;;;;;32.47;30.47;;;;;;;7.08;100.00;101640.38;5031742;28;20456;-42
2023/10/18 06:29:08;;;;;;;30.80;29.50;;;;;;;7.20;100.00;101649.75;5021388;28;20448;-43
2023/10/18 06:31:40;;;;;;;31.83;30.03;;;;;;;7.26;100.00;101651.00;5031667;28;20432;-41
2023/10/18 06:34:15;;;;;;;30.33;28.83;;;;;;;7.26;100.00;101643.84;5031465;28;20456;-43
2023/10/18 06:36:42;;;;;;;29.90;28.53;;;;;;;7.20;100.00;101653.25;5032501;28;20863;-45
2023/10/18 06:39:24;;;;;;;29.80;28.50;;;;;;;7.17;100.00;101642.94;5039240;28;20490;-42
2023/10/18 06:41:55;;;;;;;29.10;27.57;;;;;;;7.27;100.00;101639.38;5031751;28;20436;-45
2023/10/18 06:44:27;;;;;;;30.03;28.50;;;;;;;7.34;100.00;101638.63;5032091;28;20456;-44
2023/10/18 06:46:57;;;;;;;31.30;29.70;;;;;;;7.43;100.00;101640.34;5031503;28;20452;-43
2023/10/18 06:49:26;;;;;;;30.90;29.40;;;;;;;7.54;100.00;101640.09;5031784;28;20916;-44
2023/10/18 06:51:53;;;;;;;31.97;30.20;;;;;;;7.59;100.00;101642.28;5031424;28;20436;-44
2023/10/18 06:54:30;;;;;;;31.00;29.60;;;;;;;7.75;100.00;101639.75;5031293;28;20432;-41
2023/10/18 06:57:09;;;;;;;29.43;28.13;;;;;;;7.86;100.00;101635.97;5031493;28;20494;-42
2023/10/18 06:59:37;;;;;;;30.70;29.30;;;;;;;7.99;100.00;101636.41;5031461;28;20490;-43
2023/10/18 07:02:05;;;;;;;31.57;29.97;;;;;;;8.07;100.00;101633.78;5047100;22;20495;-40
2023/10/18 07:04:37;;;;;;;30.50;28.80;;;;;;;8.12;100.00;101631.50;5023597;28;20521;-43
2023/10/18 07:07:11;;;;;;;30.63;29.00;;;;;;;8.15;100.00;101628.53;5014946;28;20440;-42
2023/10/18 07:09:42;;;;;;;31.63;29.90;;;;;;;8.19;100.00;101638.66;5031041;28;20476;-45
2023/10/18 07:12:12;;;;;;;34.00;32.20;;;;;;;8.52;100.00;101629.00;5014489;28;20889;-40
2023/10/18 07:14:39;;;;;;;32.60;30.67;;;;;;;8.79;100.00;101628.75;5031039;28;20498;-42
2023/10/18 07:17:09;;;;;;;32.30;30.40;;;;;;;8.92;100.00;101624.78;5030506;28;20459;-42
2023/10/18 07:19:47;;;;;;;34.97;33.17;;;;;;;8.91;100.00;101626.59;5032024;28;20464;-41
2023/10/18 07:22:20;;;;;;;33.33;31.63;;;;;;;9.03;100.00;101622.63;5030667;28;20539;-41
2023/10/18 07:24:54;;;;;;;33.70;32.10;;;;;;;9.14;100.00;101614.31;5030682;28;20443;-45
2023/10/18 07:27:29;;;;;;;35.07;33.40;;;;;;;9.19;100.00;101612.00;5031135;28;20911;-40
2023/10/18 07:29:59;;;;;;;37.97;35.40;;;;;;;9.12;100.00;101604.84;5030879;28;20529;-47
2023/10/18 07:32:28;;;;;;;37.07;34.77;;;;;;;9.09;100.00;101608.66;5030726;28;20464;-44
2023/10/18 07:35:00;;;;;;;36.27;34.37;;;;;;;9.05;100.00;101599.34;5030958;28;20460;-45
2023/10/18 07:37:40;;;;;;;35.97;33.90;;;;;;;9.13;100.00;101603.84;5030991;28;20432;-42
2023/10/18 07:40:10;;;;;;;36.17;34.50;;;;;;;9.17;100.00;101606.00;5022418;28;20468;-42
2023/10/18 07:42:43;;;;;;;34.60;33.00;;;;;;;9.24;100.00;101604.34;5031433;28;20521;-42
2023/10/18 07:45:14;;;;;;;35.60;33.80;;;;;;;9.35;100.00;101603.16;5034571;28;20443;-46
2023/10/18 07:47:42;;;;;;;39.60;37.17;;;;;;;9.38;100.00;101597.50;5034879;28;20534;-40
2023/10/18 07:52:54;;;;;;;37.10;35.10;;;;;;;9.36;100.00;101595.03;5033949;28;20468;-46
2023/10/18 07:55:22;;;;;;;37.97;36.00;;;;;;;9.30;100.00;101589.53;5034524;28;20436;-43
2023/10/18 07:57:54;;;;;;;40.70;38.10;;;;;;;9.27;100.00;101590.69;5034799;28;20498;-42
2023/10/18 08:00:22;;;;;;;34.63;33.03;;;;;;;9.28;100.00;101596.84;5034957;28;20463;-44
2023/10/18 08:02:49;;;;;;;36.93;35.03;;;;;;;9.24;100.00;101596.34;5033941;28;20840;-43
2023/10/18 08:05:19;;;;;;;37.33;35.07;;;;;;;9.30;100.00;101586.88;5034494;28;20854;-47
2023/10/18 08:07:51;;;;;;;39.37;37.07;;;;;;;9.21;100.00;101574.56;5034358;28;20439;-45
2023/10/18 08:10:20;;;;;;;38.83;36.67;;;;;;;9.25;100.00;101579.41;5034585;28;20468;-41
2023/10/18 08:13:03;;;;;;;37.40;35.50;;;;;;;9.38;100.00;101584.19;5033642;28;20574;-43
2023/10/18 08:15:36;;;;;;;36.40;34.37;;;;;;;9.29;100.00;101580.72;5033823;28;20431;-43
2023/10/18 08:18:14;;;;;;;36.53;34.63;;;;;;;9.19;100.00;101573.91;5034227;28;20466;-44
2023/10/18 08:20:56;;;;;;;35.67;33.67;;;;;;;8.97;100.00;101571.91;5034306;28;20482;-43
2023/10/18 08:23:35;;;;;;;37.20;34.63;;;;;;;9.00;100.00;101579.56;5033953;28;20548;-43
2023/10/18 08:26:06;;;;;;;33.90;32.33;;;;;;;8.99;100.00;101580.56;5034213;28;20440;-42
2023/10/18 08:28:39;;;;;;;35.10;33.43;;;;;;;9.21;100.00;101575.41;5034195;28;20451;-41
2023/10/18 08:31:26;;;;;;;34.80;33.00;;;;;;;9.20;100.00;101573.72;5034505;28;20475;-41
2023/10/18 08:33:56;;;;;;;34.27;32.37;;;;;;;9.32;100.00;101580.38;5033724;28;20537;-46
2023/10/18 08:36:30;;;;;;;33.80;32.20;;;;;;;9.56;100.00;101582.16;5033682;28;20471;-43
2023/10/18 08:38:58;;;;;;;33.30;31.70;;;;;;;9.73;100.00;101583.81;5033791;28;20881;-40
2023/10/18 08:41:36;;;;;;;34.47;32.97;;;;;;;9.79;100.00;101572.47;5033609;28;20441;-43
2023/10/18 08:44:08;;;;;;;35.07;33.57;;;;;;;9.83;100.00;101567.59;5033318;28;20546;-43
2023/10/18 08:46:42;;;;;;;36.93;35.33;;;;;;;9.94;100.00;101584.09;5033897;28;20822;-42
2023/10/18 08:49:12;;;;;;;35.37;33.70;;;;;;;10.06;100.00;101584.53;5033781;28;20432;-42
2023/10/18 08:51:44;;;;;;;34.37;32.77;;;;;;;9.97;100.00;101569.59;5033520;28;20885;-42
2023/10/18 08:54:19;;;;;;;36.00;34.10;;;;;;;10.06;100.00;101571.22;5032481;28;20518;-41
2023/10/18 08:56:48;;;;;;;37.43;35.57;;;;;;;10.18;100.00;101569.84;5033667;28;20816;-40
2023/10/18 08:59:19;;;;;;;36.03;34.47;;;;;;;10.39;100.00;101574.59;5033360;28;20432;-41
2023/10/18 09:02:12;;;;;;;39.30;37.43;;;;;;;10.54;100.00;101560.31;5033133;28;20436;-39
2023/10/18 09:04:44;;;;;;;39.10;37.50;;;;;;;10.45;100.00;101564.03;5033384;28;20811;-44
2023/10/18 09:07:22;;;;;;;37.97;36.23;;;;;;;10.79;100.00;101571.66;5033796;28;20491;-43
2023/10/18 09:09:54;;;;;;;35.17;33.43;;;;;;;10.99;100.00;101567.47;5033209;28;20439;-43
2023/10/18 09:12:35;;;;;;;35.30;33.90;;;;;;;11.01;100.00;101561.97;5032349;28;20464;-45
2023/10/18 09:18:00;;;;;;;35.87;34.23;;;;;;;10.76;100.00;101552.50;5026048;28;20448;-49
2023/10/18 09:20:29;;;;;;;36.20;34.70;;;;;;;10.95;100.00;101554.69;5033112;28;20519;-41
2023/10/18 09:23:01;;;;;;;34.70;33.10;;;;;;;11.11;100.00;101543.84;5031968;28;20464;-46
2023/10/18 09:25:29;;;;;;;34.93;33.50;;;;;;;11.03;100.00;101533.25;5033165;28;20488;-44
2023/10/18 09:28:08;;;;;;;37.00;35.50;;;;;;;11.15;100.00;101547.84;5032637;28;20436;-46
2023/10/18 09:30:36;;;;;;;35.53;33.87;;;;;;;11.19;100.00;101545.63;5032750;28;20540;-45
2023/10/18 09:33:06;;;;;;;35.80;34.20;;;;;;;11.12;100.00;101540.19;5032146;28;20468;-41
2023/10/18 09:35:33;;;;;;;37.83;35.93;;;;;;;11.11;100.00;101536.69;5032778;28;20452;-42
2023/10/18 09:38:03;;;;;;;35.00;33.47;;;;;;;10.99;100.00;101542.66;5041459;28;20526;-43
2023/10/18 09:40:31;;;;;;;35.73;34.03;;;;;;;10.94;100.00;101551.19;5032836;28;20436;-42
2023/10/18 09:42:59;;;;;;;35.30;33.60;;;;;;;11.21;100.00;101549.78;5032284;28;20468;-41
2023/10/18 09:45:28;;;;;;;34.30;32.90;;;;;;;11.13;100.00;101543.69;5032421;28;20436;-41
2023/10/18 09:47:58;;;;;;;35.23;33.63;;;;;;;11.50;100.00;101543.66;5031982;28;20494;-43
2023/10/18 09:50:31;;;;;;;33.20;31.80;;;;;;;11.75;100.00;101533.56;5032873;28;20439;-42
2023/10/18 09:52:59;;;;;;;32.77;31.40;;;;;;;12.02;100.00;101527.53;5031948;28;20800;-43
2023/10/18 09:55:28;;;;;;;34.10;32.70;;;;;;;12.05;100.00;101525.34;5031927;28;20440;-42
2023/10/18 09:58:03;;;;;;;28.17;26.87;;;;;;;12.31;100.00;101521.28;5032303;28;20448;-43
2023/10/18 10:00:41;;;;;;;25.93;24.93;;;;;;;12.52;100.00;101508.78;5032462;28;20478;-42
2023/10/18 10:03:10;;;;;;;25.90;24.80;;;;;;;12.58;100.00;101504.50;5031332;28;20498;-43
2023/10/18 10:05:43;;;;;;;26.73;25.60;;;;;;;12.75;100.00;101498.69;5031802;28;20549;-43
2023/10/18 10:08:11;;;;;;;28.07;26.93;;;;;;;12.82;100.00;101497.94;5031996;28;20824;-40
2023/10/18 10:10:46;;;;;;;27.87;26.97;;;;;;;13.10;100.00;101498.81;5031836;28;20436;-42
2023/10/18 10:13:19;;;;;;;27.10;26.10;;;;;;;13.21;100.00;101499.13;5031734;28;20491;-42
2023/10/18 10:15:54;;;;;;;27.07;25.97;;;;;;;13.47;100.00;101497.66;5032124;28;20432;-40
2023/10/18 10:18:26;;;;;;;26.23;24.93;;;;;;;13.64;100.00;101485.56;5032391;28;20479;-41
2023/10/18 10:20:58;;;;;;;24.10;23.07;;;;;;;13.81;100.00;101487.72;5031927;28;20440;-41
2023/10/18 10:23:32;;;;;;;23.10;22.10;;;;;;;13.99;100.00;101480.97;5031236;28;20538;-42
2023/10/18 10:26:10;;;;;;;23.73;22.93;;;;;;;14.05;100.00;101482.84;5031807;28;20542;-40
2023/10/18 10:29:33;;;;;;;22.67;21.60;;;;;;;14.17;100.00;101468.66;5031808;28;20428;-41
2023/10/18 10:32:04;;;;;;;20.93;20.13;;;;;;;13.95;100.00;101479.75;5030777;28;20484;-42
2023/10/18 10:34:36;;;;;;;21.83;21.03;;;;;;;13.84;100.00;101457.81;5031769;28;20436;-47
2023/10/18 10:37:08;;;;;;;22.87;22.07;;;;;;;13.82;100.00;101456.38;5031648;28;20498;-42
2023/10/18 10:39:43;;;;;;;20.80;20.20;;;;;;;13.86;100.00;101450.41;5031952;28;20490;-40
2023/10/18 10:42:28;;;;;;;21.57;20.67;;;;;;;13.77;100.00;101446.25;5030641;28;20455;-41
2023/10/18 10:44:57;;;;;;;21.13;20.13;;;;;;;13.77;100.00;101454.28;5031304;28;20923;-42
2023/10/18 10:47:29;;;;;;;21.70;20.90;;;;;;;13.66;100.00;101444.13;5031924;28;20432;-43
2023/10/18 10:49:59;;;;;;;21.30;20.50;;;;;;;13.74;100.00;101449.31;5031634;28;20440;-46
2023/10/18 10:52:32;;;;;;;22.00;21.20;;;;;;;13.60;100.00;101436.91;5031054;28;20955;-47
2023/10/18 10:55:05;;;;;;;21.30;20.37;;;;;;;13.62;100.00;101426.78;5031227;28;20796;-41
2023/10/18 10:57:43;;;;;;;21.30;20.30;;;;;;;13.76;100.00;101433.06;5031591;28;20950;-43
2023/10/18 11:03:28;;;;;;;20.87;19.90;;;;;;;13.68;100.00;101425.16;5029040;28;20855;-43
2023/10/18 11:05:58;;;;;;;20.70;19.80;;;;;;;13.55;100.00;101423.28;5030977;28;20494;-40
2023/10/18 11:08:28;;;;;;;21.40;20.57;;;;;;;13.54;100.00;101418.94;5031581;28;20542;-40
2023/10/18 11:10:57;;;;;;;20.80;20.00;;;;;;;13.52;100.00;101412.97;5031460;28;20535;-47
2023/10/18 11:13:26;;;;;;;21.50;20.77;;;;;;;13.52;100.00;101404.09;5030502;28;20468;-45
2023/10/18 11:15:54;;;;;;;21.33;20.23;;;;;;;13.57;100.00;101401.63;5031229;28;20443;-40
2023/10/18 11:18:22;;;;;;;19.73;19.00;;;;;;;13.65;100.00;101409.50;5030764;28;20440;-44
2023/10/18 11:21:05;;;;;;;22.57;21.77;;;;;;;13.68;100.00;101399.19;5030769;28;20446;-41
2023/10/18 11:23:37;;;;;;;21.60;20.50;;;;;;;13.68;100.00;101390.31;5030604;28;20521;-44
2023/10/18 11:26:09;;;;;;;20.70;20.00;;;;;;;13.71;100.00;101397.97;5030653;28;20444;-42
2023/10/18 11:28:38;;;;;;;21.97;20.87;;;;;;;13.72;100.00;101394.25;5031274;28;20436;-40
2023/10/18 11:31:07;;;;;;;20.43;19.80;;;;;;;13.75;100.00;101388.50;5030928;28;20444;-43
2023/10/18 11:33:46;;;;;;;20.23;19.43;;;;;;;13.75;100.00;101383.97;5030590;28;20456;-45
2023/10/18 11:36:18;;;;;;;20.27;19.37;;;;;;;13.70;100.00;101378.41;5030575;28;20467;-41
2023/10/18 11:41:34;;;;;;;20.47;19.47;;;;;;;13.73;100.00;101374.47;5030864;28;20468;-43
2023/10/18 11:44:06;;;;;;;20.50;19.60;;;;;;;13.70;100.00;101364.16;5029968;28;20543;-42
2023/10/18 11:46:47;;;;;;;19.13;18.43;;;;;;;13.78;100.00;101361.28;5030661;28;20989;-42
2023/10/18 11:49:18;;;;;;;19.87;19.03;;;;;;;13.65;100.00;101363.94;5030714;28;20490;-42